createdAt,value
2023-01-19T00:40:06.859Z,1.10
2023-01-19T00:42:41.372Z,1.10
2023-01-19T00:45:12.826Z,1.10
2023-01-19T00:47:44.148Z,1.00
2023-01-19T00:50:17.635Z,1.00
2023-01-19T00:52:46.775Z,1.10
2023-01-19T00:55:28.181Z,0.90
2023-01-19T00:57:57.242Z,0.90
2023-01-19T01:00:28.963Z,0.70
2023-01-19T01:02:57.694Z,0.90
2023-01-19T01:05:26.454Z,0.90
2023-01-19T01:07:55.346Z,0.90
2023-01-19T01:10:27.834Z,1.00
2023-01-19T01:13:22.383Z,0.90
2023-01-19T01:15:48.254Z,0.90
2023-01-19T01:18:17.325Z,0.80
2023-01-19T01:20:48.804Z,0.90
2023-01-19T01:23:25.813Z,0.90
2023-01-19T01:25:56.563Z,0.90
2023-01-19T01:28:28.202Z,0.90
2023-01-19T01:30:57.705Z,0.90
2023-01-19T01:33:41.355Z,0.80
2023-01-19T01:40:00.266Z,0.80
2023-01-19T01:42:51.307Z,0.70
2023-01-19T01:45:31.136Z,0.60
2023-01-19T01:48:24.688Z,0.40
2023-01-19T01:51:27.452Z,0.70
2023-01-19T01:54:16.464Z,0.30
2023-01-19T01:56:50.097Z,0.40
2023-01-19T01:59:27.030Z,0.50
2023-01-19T02:02:21.079Z,0.40
2023-01-19T02:04:55.347Z,0.20
2023-01-19T02:07:48.648Z,0.10
2023-01-19T02:10:35.317Z,0.00
2023-01-19T02:13:22.658Z,0.10
2023-01-19T02:15:55.976Z,0.10
2023-01-19T02:18:26.482Z,0.00
2023-01-19T02:21:01.869Z,-0.10
2023-01-19T02:23:42.901Z,-0.10
2023-01-19T02:26:17.933Z,-0.20
2023-01-19T02:28:50.589Z,-0.20
2023-01-19T02:31:20.080Z,-0.20
2023-01-19T02:33:49.835Z,0.00
2023-01-19T02:36:21.813Z,-0.20
2023-01-19T02:38:56.321Z,-0.20
2023-01-19T02:41:30.495Z,-0.30
2023-01-19T02:43:59.993Z,0.00
2023-01-19T02:46:35.702Z,-0.20
2023-01-19T02:49:06.598Z,-0.10
2023-01-19T02:51:37.056Z,-0.30
2023-01-19T02:55:02.759Z,-0.30
2023-01-19T02:57:52.486Z,-0.40
2023-01-19T03:00:34.561Z,-0.40
2023-01-19T03:03:16.662Z,-0.50
2023-01-19T03:06:04.767Z,-0.60
2023-01-19T03:08:44.159Z,-0.70
2023-01-19T03:11:26.352Z,-0.80
2023-01-19T03:14:02.437Z,-0.70
2023-01-19T03:20:16.212Z,-1.00
2023-01-19T03:22:45.803Z,-0.80
2023-01-19T03:25:15.488Z,-0.90
2023-01-19T03:28:00.443Z,-1.20
2023-01-19T03:30:34.896Z,-1.20
2023-01-19T03:33:11.434Z,-1.30
2023-01-19T03:35:44.797Z,-1.50
2023-01-19T03:38:20.371Z,-1.30
2023-01-19T03:40:52.415Z,-1.20
2023-01-19T03:43:30.002Z,-1.40
2023-01-19T03:45:59.043Z,-1.60
2023-01-19T03:48:29.495Z,-1.40
2023-01-19T03:51:00.391Z,-1.50
2023-01-19T03:53:31.668Z,-1.30
2023-01-19T03:56:24.974Z,-1.10
2023-01-19T03:59:37.112Z,-1.20
2023-01-19T04:02:16.134Z,-1.20
2023-01-19T04:05:00.565Z,-1.20
2023-01-19T04:07:40.461Z,-1.20
2023-01-19T04:10:17.629Z,-1.30
2023-01-19T04:13:06.353Z,-1.20
2023-01-19T05:03:08.826Z,-1.30
2023-01-19T05:05:47.160Z,-1.40
2023-01-19T05:08:16.145Z,-1.40
2023-01-19T05:10:45.289Z,-1.30
2023-01-19T05:13:19.433Z,-1.30
2023-01-19T06:02:16.764Z,-1.70
2023-01-19T06:04:49.322Z,-1.60
2023-01-19T06:07:54.671Z,-1.80
2023-01-19T06:10:33.438Z,-1.90
2023-01-19T06:17:24.573Z,-1.90
2023-01-19T06:20:19.942Z,-2.00
2023-01-19T06:25:39.594Z,-2.00
2023-01-19T06:59:33.863Z,-2.00
2023-01-19T07:02:33.939Z,-2.00
2023-01-19T07:20:23.635Z,-1.90
2023-01-19T07:47:35.301Z,-1.20
2023-01-19T07:50:14.332Z,-1.20
2023-01-19T07:52:50.798Z,-1.20
2023-01-19T07:55:27.809Z,-1.20
2023-01-19T09:13:02.801Z,0.70
2023-01-19T09:41:26.193Z,1.50
2023-01-19T09:44:25.352Z,1.50
2023-01-19T09:47:59.650Z,1.60
2023-01-19T09:50:52.738Z,1.80
2023-01-19T09:53:48.677Z,1.90
2023-01-19T10:00:17.496Z,2.30
2023-01-19T10:03:12.119Z,2.20
2023-01-19T10:18:36.126Z,2.50
2023-01-19T10:22:00.491Z,2.60
2023-01-19T11:31:57.990Z,4.20
2023-01-19T12:42:54.320Z,17.60
2023-01-19T12:50:06.390Z,19.60
2023-01-19T13:07:40.694Z,21.10
2023-01-19T14:55:48.798Z,6.10
2023-01-19T14:58:21.377Z,6.00
2023-01-19T15:00:53.119Z,6.20
2023-01-19T15:03:53.330Z,5.90
2023-01-19T15:07:12.484Z,5.90
2023-01-19T17:56:50.460Z,3.90
2023-01-19T18:07:25.241Z,4.00
2023-01-19T18:10:39.763Z,4.00
2023-01-19T18:13:18.860Z,3.90
2023-01-19T19:13:36.182Z,4.30
2023-01-19T19:57:51.992Z,4.30
2023-01-19T20:04:20.156Z,4.40
2023-01-19T20:10:03.603Z,4.60
2023-01-19T20:12:57.514Z,4.50
2023-01-19T20:15:56.764Z,4.50
2023-01-19T20:22:10.801Z,4.60
2023-01-19T20:27:58.616Z,4.50
2023-01-19T20:30:49.434Z,4.50
2023-01-19T20:33:53.747Z,4.60
2023-01-19T20:36:42.602Z,4.60
2023-01-19T20:39:52.191Z,4.60
2023-01-19T20:43:00.311Z,4.70
2023-01-19T20:45:59.336Z,4.90
2023-01-19T20:48:57.228Z,4.90
2023-01-19T20:52:03.275Z,4.90
2023-01-19T20:55:02.818Z,4.90
2023-01-19T21:01:31.739Z,4.90
2023-01-19T21:04:01.341Z,4.90
2023-01-19T21:06:33.567Z,5.10
2023-01-19T21:09:02.416Z,5.00
2023-01-19T21:11:55.010Z,5.10
2023-01-19T21:14:40.540Z,5.10
2023-01-19T21:17:37.072Z,5.10
2023-01-19T21:20:26.497Z,5.40
2023-01-19T21:23:07.526Z,5.20
2023-01-19T21:26:04.392Z,5.20
2023-01-19T21:29:01.275Z,5.20
2023-01-19T21:31:52.705Z,5.20
2023-01-19T21:34:55.555Z,5.20
2023-01-19T21:37:45.669Z,5.10
2023-01-19T21:40:55.811Z,5.30
2023-01-19T21:43:58.623Z,5.30
2023-01-19T21:46:58.442Z,5.30
2023-01-19T21:54:29.398Z,5.30
2023-01-19T22:01:20.900Z,5.20
2023-01-19T22:04:50.040Z,5.20
2023-01-19T22:07:57.555Z,5.20
2023-01-19T22:15:33.840Z,5.10
2023-01-19T22:21:33.208Z,5.20
2023-01-19T22:25:00.631Z,5.00
2023-01-19T22:27:50.249Z,5.00
2023-01-19T22:30:45.396Z,5.20
2023-01-19T22:33:39.272Z,5.10
2023-01-19T22:36:25.379Z,4.80
2023-01-19T22:39:35.064Z,4.80
2023-01-19T22:42:22.615Z,4.90
2023-01-19T22:45:07.117Z,5.00
2023-01-19T22:48:00.998Z,5.10
2023-01-19T22:50:51.433Z,5.00
2023-01-19T22:54:02.394Z,5.00
2023-01-19T22:59:55.065Z,5.00
2023-01-19T23:02:54.002Z,5.10
2023-01-19T23:05:56.152Z,5.00
2023-01-19T23:08:38.496Z,5.10
2023-01-19T23:11:30.310Z,5.10
2023-01-19T23:14:41.457Z,5.00
2023-01-19T23:17:34.909Z,5.10
2023-01-19T23:20:37.900Z,5.10
2023-01-19T23:23:33.127Z,5.10
2023-01-19T23:26:35.421Z,5.20
2023-01-19T23:29:39.111Z,5.10
2023-01-19T23:33:02.930Z,5.20
2023-01-19T23:36:20.281Z,5.10
2023-01-19T23:39:39.106Z,5.10
2023-01-19T23:42:33.198Z,5.10
2023-01-19T23:45:37.433Z,5.20
2023-01-19T23:48:30.415Z,5.20
2023-01-19T23:51:34.997Z,5.20
2023-01-19T23:54:28.899Z,5.30
